Main page
METAR-TAF:

METAR-TAF

Airports :

Area_Regional_Airport

South Haven, Michigan, United States

latitude: 42-21-03N, longitude: 086-15-22W, elevation: 666 ft

Current weather observation

The report was made 33 minutes ago, at 02:35 UTC
Calm wind
Temperature 61°F
Humidity 63%
Pressure 29.88 in. Hg
Visibility: 10 miles
Clear sky

METAR: KLWA 230235Z AUTO 00000KT 10SM CLR 16/09 A2988 RMK AO2 T01590089

Time: 23:08 (03:08 UTC)


TAF: missing

Weather observations and forecasts of more than 4000 airports (METAR and TAF reports).

The available stations are represented by yellow and red dots on the map.

Hover mouse over dot to see the name of the station.

Then click to see weather observations and forecasts.

To change the map : click on the green buttons with a black cross to zoom in, on the green button with a dash to zoom out, or on the green arrows for adjacent maps.


METAR-TAF: